createdAt,value
2022-11-15T00:01:23.775Z,3.70
2022-11-15T00:03:52.800Z,3.65
2022-11-15T00:06:21.185Z,3.61
2022-11-15T00:08:49.562Z,3.59
2022-11-15T00:11:18.247Z,3.57
2022-11-15T00:13:46.609Z,3.55
2022-11-15T00:16:14.972Z,3.54
2022-11-15T00:18:47.820Z,3.51
2022-11-15T00:21:19.101Z,3.48
2022-11-15T00:23:47.413Z,3.46
2022-11-15T00:26:16.471Z,3.44
2022-11-15T00:28:45.067Z,3.42
2022-11-15T00:31:15.250Z,3.39
2022-11-15T00:33:46.290Z,3.37
2022-11-15T00:36:14.715Z,3.36
2022-11-15T00:38:43.142Z,3.35
2022-11-15T00:41:11.496Z,3.33
2022-11-15T00:43:41.155Z,3.34
2022-11-15T00:46:10.959Z,3.32
2022-11-15T00:48:39.354Z,3.32
2022-11-15T00:51:07.760Z,3.32
2022-11-15T00:53:36.111Z,3.33
2022-11-15T00:56:04.929Z,3.33
2022-11-15T00:58:33.333Z,3.33
2022-11-15T01:01:13.999Z,3.33
2022-11-15T01:03:43.129Z,3.32
2022-11-15T01:06:12.716Z,3.32
2022-11-15T01:08:41.273Z,3.31
2022-11-15T01:11:13.089Z,3.29
2022-11-15T01:13:41.671Z,3.26
2022-11-15T01:16:14.281Z,3.22
2022-11-15T01:18:42.680Z,3.19
2022-11-15T01:21:15.191Z,3.16
2022-11-15T01:23:43.635Z,3.14
2022-11-15T01:26:15.944Z,3.12
2022-11-15T01:28:44.294Z,3.11
2022-11-15T01:31:17.912Z,3.11
2022-11-15T01:33:47.518Z,3.10
2022-11-15T01:36:20.300Z,3.10
2022-11-15T01:38:56.405Z,3.09
2022-11-15T01:41:30.191Z,3.07
2022-11-15T01:44:41.388Z,3.05
2022-11-15T01:47:21.609Z,3.01
2022-11-15T01:50:05.159Z,2.98
2022-11-15T01:52:36.713Z,2.96
2022-11-15T01:55:19.548Z,2.93
2022-11-15T01:57:54.207Z,2.90
2022-11-15T02:00:22.689Z,2.88
2022-11-15T02:02:51.701Z,2.86
2022-11-15T02:13:52.847Z,2.86
2022-11-15T02:16:55.689Z,2.85
2022-11-15T02:19:33.234Z,2.86
2022-11-15T02:22:53.474Z,2.86
2022-11-15T02:25:42.076Z,2.86
2022-11-15T02:28:47.566Z,2.85
2022-11-15T02:31:48.324Z,2.84
2022-11-15T02:34:53.930Z,2.82
2022-11-15T02:37:38.043Z,2.82
2022-11-15T02:40:35.013Z,2.81
2022-11-15T02:43:32.317Z,2.80
2022-11-15T02:47:04.935Z,2.78
2022-11-15T02:49:38.668Z,2.77
2022-11-15T02:52:06.948Z,2.76
2022-11-15T02:54:36.484Z,2.75
2022-11-15T02:57:21.112Z,2.75
2022-11-15T03:00:04.668Z,2.74
2022-11-15T03:02:51.432Z,2.74
2022-11-15T03:06:05.065Z,2.73
2022-11-15T03:08:48.627Z,2.73
2022-11-15T03:11:20.609Z,2.71
2022-11-15T03:14:20.283Z,2.70
2022-11-15T03:17:24.314Z,2.67
2022-11-15T03:19:56.872Z,2.66
2022-11-15T03:22:28.978Z,2.65
2022-11-15T03:25:03.351Z,2.64
2022-11-15T03:27:39.071Z,2.62
2022-11-15T03:30:10.117Z,2.62
2022-11-15T03:32:47.746Z,2.60
2022-11-15T03:35:22.200Z,2.59
2022-11-15T03:38:09.621Z,2.59
2022-11-15T03:40:53.093Z,2.57
2022-11-15T03:43:53.276Z,2.55
2022-11-15T03:46:29.828Z,2.53
2022-11-15T03:49:10.401Z,2.51
2022-11-15T03:51:39.129Z,2.47
2022-11-15T03:54:07.887Z,2.41
2022-11-15T03:56:36.190Z,2.37
2022-11-15T03:59:04.802Z,2.34
2022-11-15T04:01:33.168Z,2.32
2022-11-15T04:04:01.659Z,2.30
2022-11-15T04:06:29.996Z,2.28
2022-11-15T04:08:58.468Z,2.25
2022-11-15T04:11:26.756Z,2.24
2022-11-15T04:13:55.069Z,2.22
2022-11-15T04:16:23.455Z,2.20
2022-11-15T04:19:11.769Z,2.18
2022-11-15T04:21:58.794Z,2.16
2022-11-15T04:24:27.125Z,2.14
2022-11-15T04:26:55.467Z,2.12
2022-11-15T04:29:35.619Z,2.10
2022-11-15T04:32:07.388Z,2.09
2022-11-15T04:34:36.278Z,2.07
2022-11-15T04:37:13.769Z,2.04
2022-11-15T04:39:43.520Z,2.03
2022-11-15T04:42:12.365Z,2.01
2022-11-15T04:44:40.743Z,1.97
2022-11-15T04:47:09.066Z,1.93
2022-11-15T04:49:37.442Z,1.91
2022-11-15T04:52:05.923Z,1.90
2022-11-15T04:54:34.296Z,1.88
2022-11-15T04:57:02.613Z,1.88
2022-11-15T04:59:30.958Z,1.89
2022-11-15T05:01:59.280Z,1.91
2022-11-15T05:04:27.677Z,1.93
2022-11-15T05:06:56.015Z,1.94
2022-11-15T05:09:24.331Z,1.93
2022-11-15T05:11:52.659Z,1.92
2022-11-15T05:14:21.065Z,1.93
2022-11-15T05:16:50.259Z,1.91
2022-11-15T05:19:18.743Z,1.90
2022-11-15T05:21:48.222Z,1.89
2022-11-15T05:24:16.594Z,1.87
2022-11-15T05:26:44.869Z,1.86
2022-11-15T05:29:13.273Z,1.85
2022-11-15T05:31:42.710Z,1.84
2022-11-15T05:34:11.246Z,1.83
2022-11-15T05:36:43.743Z,1.83
2022-11-15T05:39:12.297Z,1.83
2022-11-15T05:41:46.956Z,1.82
2022-11-15T05:44:19.094Z,1.81
2022-11-15T05:46:50.144Z,1.81
2022-11-15T05:49:23.013Z,1.78
2022-11-15T05:51:53.870Z,1.75
2022-11-15T05:54:24.447Z,1.74
2022-11-15T05:56:53.640Z,1.76
2022-11-15T05:59:22.446Z,1.77
2022-11-15T06:01:51.021Z,1.78
2022-11-15T06:04:19.408Z,1.79
2022-11-15T06:06:47.762Z,1.80
2022-11-15T06:09:16.095Z,1.81
2022-11-15T06:11:44.431Z,1.83
2022-11-15T06:14:12.785Z,1.84
2022-11-15T06:16:41.261Z,1.84
2022-11-15T06:19:09.561Z,1.85
2022-11-15T06:21:38.002Z,1.83
2022-11-15T06:24:07.288Z,1.84
2022-11-15T06:26:35.579Z,1.85
2022-11-15T06:29:05.739Z,1.86
2022-11-15T06:31:35.608Z,1.87
2022-11-15T06:34:03.918Z,1.88
2022-11-15T06:36:35.448Z,1.88
2022-11-15T06:39:06.875Z,1.90
2022-11-15T06:41:36.884Z,1.91
2022-11-15T06:44:05.206Z,1.92
2022-11-15T06:46:33.505Z,1.93
2022-11-15T06:49:08.244Z,1.95
2022-11-15T06:51:38.122Z,1.98
2022-11-15T06:54:06.482Z,2.03
2022-11-15T06:56:35.102Z,2.06
2022-11-15T06:59:03.635Z,2.11
2022-11-15T07:01:31.928Z,2.15
2022-11-15T07:04:00.314Z,2.20
2022-11-15T07:06:28.641Z,2.25
2022-11-15T07:08:57.133Z,2.30
2022-11-15T07:11:25.481Z,2.35
2022-11-15T07:13:53.768Z,2.41
2022-11-15T07:16:22.097Z,2.47
2022-11-15T07:18:50.363Z,2.54
2022-11-15T07:21:21.262Z,2.59
2022-11-15T07:23:52.447Z,2.66
2022-11-15T07:26:20.925Z,2.72
2022-11-15T07:28:49.301Z,2.80
2022-11-15T07:31:17.659Z,2.86
2022-11-15T07:33:46.093Z,2.94
2022-11-15T07:36:14.442Z,3.02
2022-11-15T07:38:43.330Z,3.10
2022-11-15T07:41:11.761Z,3.18
2022-11-15T07:43:40.252Z,3.27
2022-11-15T07:46:10.616Z,3.38
2022-11-15T07:48:44.378Z,3.47
2022-11-15T07:51:17.889Z,3.58
2022-11-15T07:53:46.353Z,3.69
2022-11-15T07:56:14.962Z,3.79
2022-11-15T07:58:43.311Z,3.89
2022-11-15T08:01:11.999Z,4.02
2022-11-15T08:03:40.437Z,4.14
2022-11-15T08:06:08.845Z,4.27
2022-11-15T08:08:37.157Z,4.40
2022-11-15T08:11:05.640Z,4.53
2022-11-15T08:13:34.511Z,4.69
2022-11-15T08:16:06.435Z,4.85
2022-11-15T08:18:35.736Z,5.05
2022-11-15T08:21:04.905Z,5.24
2022-11-15T08:23:33.650Z,5.46
2022-11-15T08:26:06.665Z,5.68
2022-11-15T08:28:34.970Z,5.90
2022-11-15T08:31:05.086Z,6.13
2022-11-15T08:33:36.510Z,6.39
2022-11-15T08:36:06.648Z,6.63
2022-11-15T08:38:35.281Z,6.89
2022-11-15T08:41:07.094Z,7.13
2022-11-15T08:43:35.670Z,7.38
2022-11-15T08:46:04.269Z,7.65
2022-11-15T08:48:32.915Z,7.90
2022-11-15T08:51:01.534Z,8.14
2022-11-15T08:53:29.838Z,8.38
2022-11-15T08:55:58.239Z,8.62
2022-11-15T08:58:26.703Z,8.84
2022-11-15T09:00:56.362Z,9.06
2022-11-15T09:03:26.199Z,9.30
2022-11-15T09:06:00.129Z,9.54
2022-11-15T09:08:47.029Z,9.76
2022-11-15T09:11:19.053Z,9.99
2022-11-15T09:13:47.521Z,10.24
2022-11-15T09:16:16.416Z,10.47
2022-11-15T09:18:44.894Z,10.70
2022-11-15T09:21:13.753Z,10.93
2022-11-15T09:23:42.672Z,11.17
2022-11-15T09:26:11.107Z,11.38
2022-11-15T09:28:42.712Z,11.57
2022-11-15T09:31:11.345Z,11.75
2022-11-15T09:33:39.751Z,11.94
2022-11-15T09:36:10.314Z,12.12
2022-11-15T09:38:39.017Z,12.31
2022-11-15T09:41:13.470Z,12.53
2022-11-15T09:44:25.128Z,12.72
2022-11-15T09:47:50.675Z,12.98
2022-11-15T09:50:37.680Z,13.27
2022-11-15T09:53:10.804Z,13.50
2022-11-15T09:56:01.443Z,13.66
2022-11-15T09:59:19.076Z,13.77
2022-11-15T10:02:05.735Z,13.96
2022-11-15T10:04:34.230Z,14.08
2022-11-15T10:07:14.234Z,14.22
2022-11-15T10:10:09.516Z,14.36
2022-11-15T10:12:49.958Z,14.52
2022-11-15T10:15:23.888Z,14.60
2022-11-15T10:18:07.564Z,14.70
2022-11-15T10:21:00.401Z,14.81
2022-11-15T10:23:30.112Z,14.97
2022-11-15T10:26:06.420Z,15.12
2022-11-15T10:37:46.800Z,15.85
2022-11-15T10:40:25.243Z,15.98
2022-11-15T10:43:12.060Z,16.17
2022-11-15T10:45:40.505Z,16.34
2022-11-15T10:48:14.767Z,16.46
2022-11-15T10:50:46.962Z,16.59
2022-11-15T10:53:27.733Z,16.69
2022-11-15T10:56:06.421Z,16.77
2022-11-15T10:58:43.981Z,16.92
2022-11-15T11:01:18.982Z,17.08
2022-11-15T11:04:03.572Z,17.23
2022-11-15T11:06:53.847Z,17.31
2022-11-15T11:09:36.535Z,17.45
2022-11-15T11:12:10.865Z,17.57
2022-11-15T11:14:40.599Z,17.69
2022-11-15T11:17:36.358Z,17.82
2022-11-15T11:20:41.572Z,17.95
2022-11-15T11:23:34.699Z,18.07
2022-11-15T11:26:32.414Z,18.18
2022-11-15T11:29:15.468Z,18.30
2022-11-15T11:32:02.163Z,18.42
2022-11-15T11:34:52.353Z,18.53
2022-11-15T11:38:07.298Z,18.65
2022-11-15T11:40:48.814Z,18.67
2022-11-15T11:43:41.911Z,18.72
2022-11-15T11:47:01.652Z,18.75
2022-11-15T11:49:54.977Z,18.79
2022-11-15T11:52:32.219Z,18.86
2022-11-15T11:55:20.398Z,18.89
2022-11-15T11:57:59.950Z,18.94
2022-11-15T12:00:30.083Z,18.97
2022-11-15T12:03:19.941Z,18.93
2022-11-15T12:05:56.094Z,18.84
2022-11-15T12:08:42.722Z,18.72
2022-11-15T12:11:39.720Z,18.57
2022-11-15T12:14:28.374Z,18.31
2022-11-15T12:16:58.392Z,18.08
2022-11-15T12:19:27.934Z,17.93
2022-11-15T12:22:24.291Z,17.79
2022-11-15T12:25:16.979Z,17.66
2022-11-15T12:28:02.697Z,17.56
2022-11-15T12:30:46.849Z,17.46
2022-11-15T12:33:36.446Z,17.37
2022-11-15T12:36:38.125Z,17.26
2022-11-15T12:39:15.775Z,17.18
2022-11-15T12:42:05.169Z,17.10
2022-11-15T12:44:33.898Z,16.99
2022-11-15T12:47:23.345Z,16.89
2022-11-15T12:49:52.899Z,16.77
2022-11-15T12:52:21.424Z,16.71
2022-11-15T12:54:54.725Z,16.68
2022-11-15T12:57:31.573Z,16.61
2022-11-15T13:00:25.428Z,16.52
2022-11-15T13:03:19.999Z,16.45
2022-11-15T13:05:58.919Z,16.38
2022-11-15T13:08:48.706Z,16.32
2022-11-15T13:12:10.074Z,16.24
2022-11-15T13:14:38.511Z,16.17
2022-11-15T13:17:34.477Z,16.12
2022-11-15T13:20:24.939Z,16.07
2022-11-15T13:23:09.918Z,16.03
2022-11-15T13:26:06.813Z,15.96
2022-11-15T13:28:50.668Z,15.92
2022-11-15T13:31:41.543Z,15.90
2022-11-15T13:34:50.445Z,15.87
2022-11-15T13:37:22.796Z,15.85
2022-11-15T13:39:51.434Z,15.82
2022-11-15T13:42:21.953Z,15.78
2022-11-15T13:45:06.381Z,15.75
2022-11-15T13:47:34.946Z,15.71
2022-11-15T13:50:09.706Z,15.69
2022-11-15T13:52:45.120Z,15.66
2022-11-15T13:55:22.624Z,15.58
2022-11-15T13:58:06.840Z,15.59
2022-11-15T14:00:46.442Z,15.84
2022-11-15T14:03:25.625Z,16.18
2022-11-15T14:06:14.184Z,16.49
2022-11-15T14:09:26.573Z,16.60
2022-11-15T14:11:57.397Z,16.53
2022-11-15T14:14:29.699Z,16.43
2022-11-15T14:17:01.995Z,16.23
2022-11-15T14:19:32.519Z,16.05
2022-11-15T14:22:26.508Z,15.92
2022-11-15T14:25:37.371Z,15.76
2022-11-15T14:28:31.066Z,15.53
2022-11-15T14:31:01.701Z,15.31
2022-11-15T14:33:36.513Z,15.14
2022-11-15T14:36:11.543Z,14.98
2022-11-15T14:38:40.040Z,14.84
2022-11-15T14:41:23.886Z,14.70
2022-11-15T14:43:53.573Z,14.54
2022-11-15T14:46:22.077Z,14.40
2022-11-15T14:48:50.431Z,14.25
2022-11-15T14:51:19.939Z,14.05
2022-11-15T14:53:48.574Z,13.87
2022-11-15T14:56:17.727Z,13.68
2022-11-15T14:58:46.125Z,13.50
2022-11-15T15:01:25.601Z,13.34
2022-11-15T15:03:59.244Z,13.17
2022-11-15T15:06:27.878Z,13.01
2022-11-15T15:08:56.159Z,12.85
2022-11-15T15:11:29.004Z,12.71
2022-11-15T15:13:59.313Z,12.59
2022-11-15T15:16:28.514Z,12.48
2022-11-15T15:18:56.836Z,12.36
2022-11-15T15:21:36.876Z,12.23
2022-11-15T15:24:06.182Z,12.10
2022-11-15T15:26:37.388Z,11.97
2022-11-15T15:29:05.877Z,11.84
2022-11-15T15:31:34.463Z,11.71
2022-11-15T15:34:03.170Z,11.58
2022-11-15T15:36:31.506Z,11.43
2022-11-15T15:38:59.834Z,11.29
2022-11-15T15:41:28.339Z,11.19
2022-11-15T15:43:56.682Z,11.09
2022-11-15T15:46:25.621Z,11.00
2022-11-15T15:48:53.986Z,10.92
2022-11-15T15:51:22.318Z,10.84
2022-11-15T15:53:52.661Z,10.76
2022-11-15T15:56:20.953Z,10.69
2022-11-15T15:58:49.296Z,10.61
2022-11-15T16:01:17.876Z,10.52
2022-11-15T16:03:46.185Z,10.45
2022-11-15T16:06:39.449Z,10.39
2022-11-15T16:09:16.105Z,10.29
2022-11-15T16:11:47.496Z,10.20
2022-11-15T16:14:15.835Z,10.10
2022-11-15T16:16:44.322Z,10.02
2022-11-15T16:19:13.217Z,9.94
2022-11-15T16:21:41.630Z,9.86
2022-11-15T16:24:10.372Z,9.79
2022-11-15T16:26:39.379Z,9.71
2022-11-15T16:29:11.146Z,9.61
2022-11-15T16:31:39.807Z,9.50
2022-11-15T16:34:09.774Z,9.39
2022-11-15T16:36:38.174Z,9.28
2022-11-15T16:39:06.879Z,9.17
2022-11-15T16:41:35.130Z,9.08
2022-11-15T16:44:03.510Z,9.00
2022-11-15T16:46:31.943Z,8.93
2022-11-15T16:49:00.255Z,8.88
2022-11-15T16:51:28.550Z,8.82
2022-11-15T16:53:57.152Z,8.78
2022-11-15T16:56:30.665Z,8.72
2022-11-15T16:59:01.296Z,8.67
2022-11-15T17:01:34.002Z,8.61
2022-11-15T17:04:13.218Z,8.55
2022-11-15T17:06:44.248Z,8.49
2022-11-15T17:09:20.680Z,8.44
2022-11-15T17:11:49.243Z,8.39
2022-11-15T17:14:18.865Z,8.35
2022-11-15T17:16:48.805Z,8.29
2022-11-15T17:19:21.833Z,8.24
2022-11-15T17:21:50.358Z,8.18
2022-11-15T17:24:21.156Z,8.14
2022-11-15T17:26:49.772Z,8.06
2022-11-15T17:29:18.575Z,7.96
2022-11-15T17:31:46.941Z,7.88
2022-11-15T17:34:16.172Z,7.80
2022-11-15T17:36:44.478Z,7.74
2022-11-15T17:39:12.784Z,7.68
2022-11-15T17:41:41.325Z,7.62
2022-11-15T17:44:09.600Z,7.56
2022-11-15T17:46:37.961Z,7.50
2022-11-15T17:49:06.761Z,7.45
2022-11-15T17:51:35.187Z,7.40
2022-11-15T17:54:03.708Z,7.33
2022-11-15T17:56:32.102Z,7.28
2022-11-15T17:59:00.881Z,7.24
2022-11-15T18:01:37.761Z,7.20
2022-11-15T18:04:10.086Z,7.16
2022-11-15T18:06:38.559Z,7.13
2022-11-15T18:09:08.521Z,7.09
2022-11-15T18:11:41.050Z,7.06
2022-11-15T18:14:15.614Z,7.02
2022-11-15T18:16:44.225Z,6.98
2022-11-15T18:19:15.922Z,6.92
2022-11-15T18:21:57.751Z,6.88
2022-11-15T18:24:33.602Z,6.85
2022-11-15T18:27:04.899Z,6.83
2022-11-15T18:29:35.555Z,6.79
2022-11-15T18:32:12.342Z,6.75
2022-11-15T18:34:41.045Z,6.70
2022-11-15T18:37:09.627Z,6.65
2022-11-15T18:39:38.386Z,6.60
2022-11-15T18:42:06.921Z,6.57
2022-11-15T18:44:35.456Z,6.53
2022-11-15T18:47:03.972Z,6.49
2022-11-15T18:49:32.383Z,6.45
2022-11-15T18:52:00.860Z,6.41
2022-11-15T18:54:31.311Z,6.37
2022-11-15T18:57:00.333Z,6.31
2022-11-15T18:59:29.676Z,6.27
2022-11-15T19:01:58.064Z,6.23
2022-11-15T19:04:26.603Z,6.21
2022-11-15T19:06:55.169Z,6.18
2022-11-15T19:09:27.386Z,6.13
2022-11-15T19:11:55.802Z,6.08
2022-11-15T19:14:26.860Z,6.03
2022-11-15T19:16:55.660Z,5.98
2022-11-15T19:19:28.462Z,5.94
2022-11-15T19:21:57.674Z,5.92
2022-11-15T19:24:27.389Z,5.89
2022-11-15T19:26:55.997Z,5.87
2022-11-15T19:29:24.352Z,5.83
2022-11-15T19:31:52.724Z,5.81
2022-11-15T19:34:21.004Z,5.80
2022-11-15T19:36:49.329Z,5.80
2022-11-15T19:39:18.584Z,5.81
2022-11-15T19:41:47.734Z,5.81
2022-11-15T19:44:16.093Z,5.78
2022-11-15T19:46:44.629Z,5.79
2022-11-15T19:49:13.149Z,5.82
2022-11-15T19:51:42.753Z,5.85
2022-11-15T19:54:11.343Z,5.89
2022-11-15T19:56:42.461Z,5.93
2022-11-15T19:59:11.969Z,5.97
2022-11-15T20:01:42.169Z,6.01
2022-11-15T20:04:10.496Z,6.04
2022-11-15T20:06:42.489Z,6.06
2022-11-15T20:09:15.999Z,6.06
2022-11-15T20:11:44.999Z,6.07
2022-11-15T20:14:14.009Z,6.06
2022-11-15T20:16:43.262Z,6.04
2022-11-15T20:19:12.814Z,6.02
2022-11-15T20:21:43.690Z,6.02
2022-11-15T20:24:12.018Z,6.01
2022-11-15T20:26:40.361Z,6.01
2022-11-15T20:29:10.060Z,6.03
2022-11-15T20:31:38.773Z,6.03
2022-11-15T20:34:07.539Z,6.04
2022-11-15T20:36:35.907Z,6.05
2022-11-15T20:39:04.283Z,6.06
2022-11-15T20:41:32.782Z,6.07
2022-11-15T20:44:03.158Z,6.10
2022-11-15T20:46:31.589Z,6.11
2022-11-15T20:49:00.380Z,6.12
2022-11-15T20:51:28.738Z,6.15
2022-11-15T20:53:57.292Z,6.16
2022-11-15T20:56:25.729Z,6.17
2022-11-15T20:58:54.984Z,6.18
2022-11-15T21:01:24.917Z,6.20
2022-11-15T21:03:55.409Z,6.22
2022-11-15T21:06:26.591Z,6.24
2022-11-15T21:09:14.681Z,6.27
2022-11-15T21:12:01.956Z,6.30
2022-11-15T21:14:30.397Z,6.33
2022-11-15T21:16:59.527Z,6.35
2022-11-15T21:19:34.042Z,6.37
2022-11-15T21:22:06.190Z,6.38
2022-11-15T21:24:34.570Z,6.39
2022-11-15T21:27:03.094Z,6.39
2022-11-15T21:29:40.762Z,6.39
2022-11-15T21:32:09.779Z,6.41
2022-11-15T21:34:38.256Z,6.42
2022-11-15T21:37:07.528Z,6.44
2022-11-15T21:39:36.130Z,6.46
2022-11-15T21:42:05.067Z,6.47
2022-11-15T21:44:33.668Z,6.49
2022-11-15T21:47:02.265Z,6.49
2022-11-15T21:49:30.661Z,6.50
2022-11-15T21:51:59.072Z,6.51
2022-11-15T21:54:27.360Z,6.54
2022-11-15T21:56:55.668Z,6.55
2022-11-15T21:59:24.164Z,6.56
2022-11-15T22:02:27.837Z,6.56
2022-11-15T22:05:55.646Z,6.56
2022-11-15T22:08:24.667Z,6.53
2022-11-15T22:10:53.788Z,6.51
2022-11-15T22:13:23.689Z,6.50
2022-11-15T22:15:54.763Z,6.48
2022-11-15T22:18:26.762Z,6.45
2022-11-15T22:21:10.503Z,6.43
2022-11-15T22:23:40.505Z,6.42
2022-11-15T22:26:13.606Z,6.38
2022-11-15T22:28:42.421Z,6.36
2022-11-15T22:31:12.247Z,6.33
2022-11-15T22:33:41.117Z,6.30
2022-11-15T22:36:12.884Z,6.28
2022-11-15T22:38:41.723Z,6.27
2022-11-15T22:41:10.507Z,6.25
2022-11-15T22:43:39.378Z,6.22
2022-11-15T22:46:09.499Z,6.19
2022-11-15T22:48:39.120Z,6.17
2022-11-15T22:51:09.630Z,6.18
2022-11-15T22:53:38.423Z,6.18
2022-11-15T22:56:07.751Z,6.18
2022-11-15T22:58:37.059Z,6.19
2022-11-15T23:01:06.702Z,6.19
2022-11-15T23:03:35.738Z,6.19
2022-11-15T23:06:07.291Z,6.19
2022-11-15T23:08:36.564Z,6.20
2022-11-15T23:11:24.612Z,6.19
2022-11-15T23:13:53.719Z,6.19
2022-11-15T23:16:24.012Z,6.18
2022-11-15T23:19:01.617Z,6.17
2022-11-15T23:21:52.057Z,6.17
2022-11-15T23:24:21.599Z,6.17
2022-11-15T23:26:59.697Z,6.15
2022-11-15T23:29:30.059Z,6.13
2022-11-15T23:32:17.378Z,6.12
2022-11-15T23:34:46.549Z,6.11
2022-11-15T23:37:15.864Z,6.09
2022-11-15T23:39:44.624Z,6.09
2022-11-15T23:42:20.196Z,6.10
2022-11-15T23:44:50.827Z,6.12
2022-11-15T23:47:19.716Z,6.15
2022-11-15T23:49:48.467Z,6.17
2022-11-15T23:52:17.449Z,6.19
2022-11-15T23:54:46.435Z,6.21
2022-11-15T23:57:15.270Z,6.22
2022-11-15T23:59:44.144Z,6.23
